Terminal Aerodrome Forecast
Issued by NWS Cleveland, OH

Home | Current Version | Previous Version | Graphics & Text | Print | Product List | Glossary On
Versions: 1 2 3 4 5 6 7 8 9 10 11 12 13 14 15 16 17 18 19 20 21
859
FTUS41 KCLE 141957 AAA
TAFYNG
TAF AMD
KYNG 141957Z 1420/1518 12006KT P6SM OVC250
     FM150300 13008KT P6SM FEW025 OVC080
     FM150500 14008KT 5SM -SN SCT015 OVC025
      TEMPO 1507/1511 1 1/2SM -SN BKN006 OVC012
     FM151700 17012KT P6SM VCSH SCT008 OVC015=

USA.gov is the U.S. government's official web portal to all federal, state and local government web resources and services.